createdAt,value
2022-12-19T00:01:38.182Z,0.18
2022-12-19T00:04:08.798Z,0.18
2022-12-19T00:06:41.338Z,0.16
2022-12-19T00:09:11.983Z,0.11
2022-12-19T00:11:39.633Z,0.11
2022-12-19T00:14:07.248Z,0.09
2022-12-19T00:16:34.051Z,0.07
2022-12-19T00:19:01.548Z,0.03
2022-12-19T00:21:32.904Z,0.03
2022-12-19T00:24:03.197Z,0.04
2022-12-19T00:26:32.121Z,0.02
2022-12-19T00:29:01.453Z,0.03
2022-12-19T00:31:30.907Z,0.06
2022-12-19T00:33:57.974Z,0.08
2022-12-19T00:36:31.421Z,0.06
2022-12-19T00:39:00.039Z,0.03
2022-12-19T00:41:28.970Z,0.06
2022-12-19T00:43:57.615Z,0.08
2022-12-19T00:46:25.477Z,0.06
2022-12-19T00:48:52.445Z,0.06
2022-12-19T00:51:21.946Z,0.10
2022-12-19T00:53:50.064Z,0.11
2022-12-19T00:56:20.327Z,0.14
2022-12-19T00:58:47.742Z,0.13
2022-12-19T01:01:17.546Z,0.12
2022-12-19T01:04:04.355Z,0.08
2022-12-19T01:06:31.729Z,0.06
2022-12-19T01:08:58.585Z,0.03
2022-12-19T01:11:44.296Z,0.07
2022-12-19T01:14:17.436Z,0.09
2022-12-19T01:16:47.767Z,0.14
2022-12-19T01:19:14.669Z,0.12
2022-12-19T01:21:41.848Z,0.08
2022-12-19T01:24:09.687Z,0.09
2022-12-19T01:26:36.485Z,0.12
2022-12-19T01:29:04.421Z,0.11
2022-12-19T01:31:31.285Z,0.09
2022-12-19T01:33:59.670Z,0.13
2022-12-19T01:36:26.468Z,0.11
2022-12-19T01:38:57.297Z,0.08
2022-12-19T01:41:24.372Z,0.06
2022-12-19T01:44:09.247Z,0.08
2022-12-19T01:46:41.619Z,0.06
2022-12-19T01:49:17.350Z,0.03
2022-12-19T01:51:48.809Z,0.01
2022-12-19T01:54:22.369Z,0.03
2022-12-19T01:56:53.367Z,0.03
2022-12-19T01:59:34.003Z,0.03
2022-12-19T02:02:08.658Z,0.04
2022-12-19T02:04:36.873Z,0.02
2022-12-19T02:07:14.436Z,0.06
2022-12-19T02:09:46.087Z,0.02
2022-12-19T02:12:13.485Z,0.02
2022-12-19T02:14:41.354Z,0.02
2022-12-19T02:17:13.954Z,-0.02
2022-12-19T02:20:14.731Z,-0.02
2022-12-19T02:23:14.953Z,-0.01
2022-12-19T02:25:57.020Z,-0.02
2022-12-19T02:28:56.227Z,-0.04
2022-12-19T02:31:36.568Z,-0.04
2022-12-19T02:34:18.905Z,-0.04
2022-12-19T02:36:58.509Z,-0.06
2022-12-19T02:39:32.114Z,-0.08
2022-12-19T02:42:02.026Z,-0.05
2022-12-19T02:44:43.173Z,-0.02
2022-12-19T02:47:11.230Z,-0.06
2022-12-19T02:49:39.097Z,-0.05
2022-12-19T02:52:28.920Z,-0.10
2022-12-19T02:54:59.381Z,-0.02
2022-12-19T02:57:50.382Z,-0.04
2022-12-19T03:00:23.984Z,-0.05
2022-12-19T03:03:12.316Z,-0.05
2022-12-19T03:06:03.664Z,-0.06
2022-12-19T03:08:36.283Z,-0.09
2022-12-19T03:11:09.593Z,-0.04
2022-12-19T03:13:53.462Z,-0.05
2022-12-19T03:16:20.360Z,-0.01
2022-12-19T03:18:47.258Z,-0.06
2022-12-19T03:21:37.448Z,-0.07
2022-12-19T03:24:07.060Z,-0.05
2022-12-19T03:26:50.461Z,-0.05
2022-12-19T03:29:23.351Z,-0.05
2022-12-19T03:31:51.886Z,-0.05
2022-12-19T03:34:24.929Z,-0.01
2022-12-19T03:37:04.414Z,0.02
2022-12-19T03:39:32.935Z,-0.01
2022-12-19T03:42:21.928Z,0.04
2022-12-19T03:44:51.060Z,0.07
2022-12-19T03:47:44.294Z,0.08
2022-12-19T03:50:11.517Z,0.11
2022-12-19T03:53:00.801Z,0.09
2022-12-19T03:55:38.817Z,0.15
2022-12-19T03:58:19.247Z,0.14
2022-12-19T04:00:48.402Z,0.09
2022-12-19T04:03:19.574Z,0.14
2022-12-19T04:05:48.660Z,0.10
2022-12-19T04:08:16.804Z,0.09
2022-12-19T04:10:53.427Z,0.07
2022-12-19T04:13:27.302Z,0.07
2022-12-19T04:16:11.950Z,0.13
2022-12-19T04:18:42.389Z,0.12
2022-12-19T04:21:25.943Z,0.12
2022-12-19T04:23:58.119Z,0.15
2022-12-19T04:26:26.551Z,0.16
2022-12-19T04:28:56.682Z,0.15
2022-12-19T04:31:23.890Z,0.17
2022-12-19T04:33:50.771Z,0.17
2022-12-19T04:36:17.790Z,0.20
2022-12-19T04:38:44.595Z,0.20
2022-12-19T04:41:11.409Z,0.19
2022-12-19T04:43:38.180Z,0.16
2022-12-19T04:46:05.054Z,0.17
2022-12-19T04:48:31.859Z,0.14
2022-12-19T04:50:58.668Z,0.15
2022-12-19T04:53:25.435Z,0.14
2022-12-19T04:56:00.555Z,0.14
2022-12-19T04:58:27.293Z,0.12
2022-12-19T05:00:54.159Z,0.09
2022-12-19T05:03:21.039Z,0.11
2022-12-19T05:05:47.824Z,0.10
2022-12-19T05:08:14.562Z,0.11
2022-12-19T05:10:41.317Z,0.11
2022-12-19T05:13:09.258Z,0.10
2022-12-19T05:15:36.088Z,0.11
2022-12-19T05:18:02.851Z,0.08
2022-12-19T05:20:29.569Z,0.11
2022-12-19T05:22:56.384Z,0.11
2022-12-19T05:25:23.193Z,0.11
2022-12-19T05:27:49.924Z,0.10
2022-12-19T05:30:16.824Z,0.12
2022-12-19T05:32:43.569Z,0.12
2022-12-19T05:35:10.320Z,0.08
2022-12-19T05:37:37.019Z,0.06
2022-12-19T05:40:04.821Z,0.05
2022-12-19T05:42:31.546Z,0.06
2022-12-19T05:44:58.295Z,0.06
2022-12-19T05:47:25.168Z,0.04
2022-12-19T05:49:51.981Z,0.07
2022-12-19T05:52:18.835Z,0.06
2022-12-19T05:54:45.799Z,0.05
2022-12-19T05:57:12.553Z,0.04
2022-12-19T05:59:39.298Z,0.04
2022-12-19T06:02:06.059Z,0.06
2022-12-19T06:04:32.988Z,0.04
2022-12-19T06:06:59.789Z,0.03
2022-12-19T06:09:26.555Z,0.05
2022-12-19T06:11:53.570Z,0.04
2022-12-19T06:14:20.583Z,0.04
2022-12-19T06:16:47.503Z,0.06
2022-12-19T06:19:14.591Z,0.03
2022-12-19T06:21:47.957Z,0.03
2022-12-19T06:24:15.292Z,0.01
2022-12-19T06:26:42.029Z,0.04
2022-12-19T06:29:08.790Z,0.02
2022-12-19T06:31:35.608Z,-0.02
2022-12-19T06:34:02.653Z,-0.01
2022-12-19T06:36:30.909Z,-0.02
2022-12-19T06:38:58.588Z,-0.02
2022-12-19T06:41:44.900Z,-0.03
2022-12-19T06:44:13.831Z,0.01
2022-12-19T06:46:41.888Z,-0.03
2022-12-19T06:49:10.536Z,-0.05
2022-12-19T06:51:37.482Z,-0.04
2022-12-19T06:54:04.529Z,-0.05
2022-12-19T06:56:36.042Z,-0.06
2022-12-19T06:59:03.218Z,-0.03
2022-12-19T07:01:44.985Z,-0.02
2022-12-19T07:04:16.312Z,-0.02
2022-12-19T07:06:47.431Z,-0.03
2022-12-19T07:09:16.102Z,-0.08
2022-12-19T07:11:42.819Z,-0.07
2022-12-19T07:14:10.663Z,-0.07
2022-12-19T07:16:38.060Z,-0.07
2022-12-19T07:19:06.056Z,-0.13
2022-12-19T07:21:36.418Z,-0.14
2022-12-19T07:24:04.507Z,-0.19
2022-12-19T07:26:31.981Z,-0.16
2022-12-19T07:28:59.961Z,-0.16
2022-12-19T07:31:26.736Z,-0.17
2022-12-19T07:33:53.730Z,-0.17
2022-12-19T07:36:20.607Z,-0.15
2022-12-19T07:38:47.354Z,-0.12
2022-12-19T07:41:14.091Z,-0.13
2022-12-19T07:43:40.856Z,-0.10
2022-12-19T07:46:07.824Z,-0.10
2022-12-19T07:48:34.627Z,-0.11
2022-12-19T07:51:01.375Z,-0.09
2022-12-19T07:53:28.400Z,-0.07
2022-12-19T07:55:55.396Z,-0.07
2022-12-19T07:58:22.213Z,-0.12
2022-12-19T08:00:56.663Z,-0.13
2022-12-19T08:03:24.571Z,-0.15
2022-12-19T08:05:51.463Z,-0.18
2022-12-19T08:08:18.358Z,-0.22
2022-12-19T08:10:45.111Z,-0.22
2022-12-19T08:13:11.848Z,-0.34
2022-12-19T08:15:38.662Z,-0.24
2022-12-19T08:18:05.893Z,-0.21
2022-12-19T08:20:32.756Z,-0.21
2022-12-19T08:22:59.508Z,-0.19
2022-12-19T08:25:26.389Z,-0.24
2022-12-19T08:27:53.128Z,-0.19
2022-12-19T08:30:19.985Z,-0.17
2022-12-19T08:32:46.889Z,-0.12
2022-12-19T08:35:13.794Z,-0.06
2022-12-19T08:37:40.525Z,-0.12
2022-12-19T08:40:08.140Z,-0.10
2022-12-19T08:42:34.864Z,-0.08
2022-12-19T08:45:01.680Z,-0.06
2022-12-19T08:47:28.938Z,-0.05
2022-12-19T08:49:56.952Z,-0.04
2022-12-19T08:52:23.715Z,-0.06
2022-12-19T08:54:50.518Z,-0.06
2022-12-19T08:57:17.293Z,-0.04
2022-12-19T08:59:44.049Z,0.01
2022-12-19T09:02:12.283Z,-0.05
2022-12-19T09:05:58.153Z,-0.02
2022-12-19T09:07:25.959Z,-0.07
2022-12-19T09:09:52.754Z,-0.15
2022-12-19T09:12:19.705Z,-0.17
2022-12-19T09:14:46.590Z,-0.12
2022-12-19T09:17:13.514Z,-0.14
2022-12-19T09:19:40.473Z,-0.16
2022-12-19T09:22:10.857Z,-0.14
2022-12-19T09:24:37.623Z,-0.17
2022-12-19T09:27:04.367Z,-0.21
2022-12-19T09:29:35.274Z,-0.20
2022-12-19T09:32:02.588Z,-0.20
2022-12-19T09:34:36.809Z,-0.15
2022-12-19T09:37:04.029Z,-0.12
2022-12-19T09:39:30.818Z,-0.06
2022-12-19T09:42:19.670Z,-0.04
2022-12-19T09:44:59.717Z,-0.01
2022-12-19T09:47:31.269Z,0.03
2022-12-19T09:49:59.908Z,0.06
2022-12-19T09:52:35.137Z,0.09
2022-12-19T09:55:31.671Z,0.06
2022-12-19T09:58:15.775Z,-0.02
2022-12-19T10:00:47.444Z,-0.04
2022-12-19T10:03:27.589Z,-0.07
2022-12-19T10:07:02.282Z,-0.03
2022-12-19T10:09:49.025Z,-0.05
2022-12-19T10:12:44.542Z,0.00
2022-12-19T10:15:16.737Z,0.08
2022-12-19T10:18:09.028Z,0.02
2022-12-19T10:20:39.810Z,0.02
2022-12-19T10:23:29.160Z,0.06
2022-12-19T10:26:18.708Z,0.09
2022-12-19T10:28:58.981Z,0.03
2022-12-19T10:31:59.510Z,0.01
2022-12-19T10:34:40.716Z,0.04
2022-12-19T10:37:26.832Z,0.04
2022-12-19T10:40:10.505Z,0.14
2022-12-19T10:42:51.414Z,0.10
2022-12-19T10:45:21.161Z,0.12
2022-12-19T10:47:51.571Z,0.20
2022-12-19T10:50:22.583Z,0.14
2022-12-19T10:53:04.325Z,0.20
2022-12-19T10:55:34.710Z,0.26
2022-12-19T10:58:13.074Z,0.26
2022-12-19T11:00:58.251Z,0.30
2022-12-19T11:03:25.249Z,0.31
2022-12-19T11:05:58.158Z,0.33
2022-12-19T11:08:33.917Z,0.34
2022-12-19T11:13:05.953Z,0.35
2022-12-19T11:19:13.330Z,0.36
2022-12-19T11:22:14.160Z,0.41
2022-12-19T11:29:25.475Z,0.37
2022-12-19T11:29:26.454Z,0.42
2022-12-19T11:29:34.226Z,0.46
2022-12-19T11:30:41.544Z,0.44
2022-12-19T11:34:13.528Z,0.50
2022-12-19T11:36:52.346Z,0.50
2022-12-19T11:39:26.120Z,0.50
2022-12-19T11:42:35.335Z,0.50
2022-12-19T11:45:28.059Z,0.53
2022-12-19T11:48:36.597Z,0.50
2022-12-19T11:51:32.965Z,0.53
2022-12-19T11:54:12.187Z,0.54
2022-12-19T11:56:39.418Z,0.56
2022-12-19T11:59:42.032Z,0.57
2022-12-19T12:02:20.258Z,0.49
2022-12-19T12:04:59.583Z,0.51
2022-12-19T12:08:46.924Z,0.53
2022-12-19T12:14:22.676Z,0.56
2022-12-19T12:25:54.590Z,0.59
2022-12-19T12:31:09.282Z,0.61
2022-12-19T12:31:17.895Z,0.59
2022-12-19T12:31:22.235Z,0.59
2022-12-19T12:31:50.266Z,0.64
2022-12-19T12:32:02.059Z,0.65
2022-12-19T12:35:48.803Z,0.64
2022-12-19T12:40:47.637Z,0.67
2022-12-19T12:43:35.557Z,0.69
2022-12-19T12:46:05.466Z,0.68
2022-12-19T12:48:41.306Z,0.69
2022-12-19T12:51:09.905Z,0.70
2022-12-19T12:53:40.824Z,0.73
2022-12-19T12:56:10.892Z,0.74
2022-12-19T12:58:54.193Z,0.73
2022-12-19T13:01:35.561Z,0.74
2022-12-19T13:04:21.589Z,0.74
2022-12-19T13:06:51.320Z,0.75
2022-12-19T13:09:18.001Z,0.74
2022-12-19T13:12:46.323Z,0.72
2022-12-19T13:15:18.971Z,0.76
2022-12-19T13:17:48.404Z,0.77
2022-12-19T13:20:19.285Z,0.79
2022-12-19T13:22:59.379Z,0.78
2022-12-19T13:25:26.131Z,0.77
2022-12-19T13:28:01.947Z,0.75
2022-12-19T13:30:31.082Z,0.78
2022-12-19T13:33:00.935Z,0.81
2022-12-19T13:37:05.638Z,0.80
2022-12-19T13:40:00.638Z,0.76
2022-12-19T13:41:46.919Z,0.79
2022-12-19T13:44:14.232Z,0.83
2022-12-19T13:46:45.844Z,0.82
2022-12-19T13:49:31.892Z,0.83
2022-12-19T13:52:02.955Z,0.82
2022-12-19T13:54:34.712Z,0.84
2022-12-19T13:57:09.387Z,0.83
2022-12-19T13:59:39.983Z,0.84
2022-12-19T14:02:28.718Z,0.84
2022-12-19T14:04:56.317Z,0.86
2022-12-19T14:07:37.240Z,0.86
2022-12-19T14:10:07.701Z,0.86
2022-12-19T14:13:51.512Z,0.83
2022-12-19T14:16:01.365Z,0.90
2022-12-19T14:18:42.221Z,0.88
2022-12-19T14:22:04.707Z,0.89
2022-12-19T14:24:10.888Z,0.89
2022-12-19T14:28:18.956Z,0.91
2022-12-19T14:30:19.395Z,0.89
2022-12-19T14:33:40.606Z,0.92
2022-12-19T14:36:07.848Z,0.86
2022-12-19T14:39:23.497Z,0.87
2022-12-19T14:41:08.533Z,0.86
2022-12-19T14:43:58.791Z,0.85
2022-12-19T14:54:05.397Z,0.89
2022-12-19T14:54:07.518Z,0.88
2022-12-19T14:54:31.519Z,0.90
2022-12-19T14:56:15.900Z,0.90
2022-12-19T14:58:54.359Z,0.90
2022-12-19T15:01:26.175Z,0.90
2022-12-19T15:04:47.856Z,0.89
2022-12-19T15:07:09.009Z,0.89
2022-12-19T15:10:58.446Z,0.90
2022-12-19T15:14:52.853Z,0.90
2022-12-19T15:15:52.440Z,0.90
2022-12-19T15:18:47.557Z,0.91
2022-12-19T15:21:14.887Z,0.90
2022-12-19T15:23:44.302Z,0.89
2022-12-19T15:26:28.635Z,0.90
2022-12-19T15:28:57.026Z,0.90
2022-12-19T15:31:38.660Z,0.90
2022-12-19T15:34:34.234Z,0.91
2022-12-19T15:37:00.917Z,0.92
2022-12-19T15:39:30.006Z,0.93
2022-12-19T15:41:59.461Z,0.90
2022-12-19T15:44:36.930Z,0.91
2022-12-19T15:47:16.468Z,0.90
2022-12-19T15:49:43.251Z,0.90
2022-12-19T15:52:17.909Z,0.92
2022-12-19T15:54:50.376Z,0.91
2022-12-19T15:57:32.648Z,0.92
2022-12-19T16:00:03.168Z,0.93
2022-12-19T16:03:04.467Z,0.95
2022-12-19T16:05:21.885Z,0.93
2022-12-19T16:07:49.453Z,0.95
2022-12-19T16:10:17.841Z,0.95
2022-12-19T16:13:02.621Z,0.95
2022-12-19T16:15:34.599Z,0.96
2022-12-19T16:18:03.729Z,0.95
2022-12-19T16:20:34.553Z,0.95
2022-12-19T16:23:01.623Z,0.96
2022-12-19T16:25:39.744Z,0.97
2022-12-19T16:28:13.984Z,0.92
2022-12-19T16:30:43.448Z,0.82
2022-12-19T16:33:19.944Z,0.89
2022-12-19T16:36:04.744Z,0.86
2022-12-19T16:38:33.564Z,0.86
2022-12-19T16:41:01.764Z,0.88
2022-12-19T16:43:33.495Z,0.91
2022-12-19T16:46:01.975Z,0.93
2022-12-19T16:48:30.242Z,0.93
2022-12-19T16:50:58.911Z,0.95
2022-12-19T16:53:26.109Z,0.96
2022-12-19T16:55:55.058Z,0.96
2022-12-19T16:58:26.355Z,0.97
2022-12-19T17:00:55.192Z,0.97
2022-12-19T17:03:32.803Z,0.99
2022-12-19T17:05:59.835Z,0.96
2022-12-19T17:08:26.700Z,0.97
2022-12-19T17:10:54.533Z,0.97
2022-12-19T17:13:22.493Z,0.99
2022-12-19T17:15:56.249Z,0.97
2022-12-19T17:18:40.622Z,0.97
2022-12-19T17:21:08.312Z,0.99
2022-12-19T17:23:35.083Z,0.99
2022-12-19T17:26:01.849Z,0.97
2022-12-19T17:28:29.797Z,0.96
2022-12-19T17:30:59.779Z,0.99
2022-12-19T17:33:34.948Z,0.99
2022-12-19T17:36:03.021Z,0.99
2022-12-19T17:38:30.135Z,0.96
2022-12-19T17:40:56.948Z,0.97
2022-12-19T17:43:23.811Z,0.95
2022-12-19T17:45:51.735Z,0.98
2022-12-19T17:48:31.259Z,0.99
2022-12-19T17:50:59.178Z,0.98
2022-12-19T17:53:26.649Z,1.00
2022-12-19T17:55:53.549Z,0.99
2022-12-19T17:58:21.738Z,1.00
2022-12-19T18:00:50.120Z,0.99
2022-12-19T18:03:23.375Z,0.97
2022-12-19T18:05:52.729Z,0.98
2022-12-19T18:08:28.666Z,0.98
2022-12-19T18:10:57.134Z,0.95
2022-12-19T18:13:25.487Z,0.97
2022-12-19T18:15:55.565Z,0.99
2022-12-19T18:18:28.174Z,0.99
2022-12-19T18:20:55.250Z,0.98
2022-12-19T18:23:23.916Z,1.00
2022-12-19T18:25:54.877Z,0.98
2022-12-19T18:28:26.245Z,0.97
2022-12-19T18:31:01.436Z,0.98
2022-12-19T18:33:32.522Z,1.00
2022-12-19T18:35:59.299Z,0.96
2022-12-19T18:38:26.639Z,0.99
2022-12-19T18:40:53.474Z,0.99
2022-12-19T18:43:20.734Z,1.00
2022-12-19T18:45:52.579Z,0.97
2022-12-19T18:48:25.473Z,0.99
2022-12-19T18:50:53.710Z,1.00
2022-12-19T18:53:22.444Z,0.99
2022-12-19T18:55:51.120Z,1.00
2022-12-19T18:58:19.804Z,0.96
2022-12-19T19:00:48.358Z,0.98
2022-12-19T19:03:22.806Z,0.99
2022-12-19T19:05:49.917Z,0.96
2022-12-19T19:08:19.769Z,0.93
2022-12-19T19:10:49.688Z,0.99
2022-12-19T19:13:17.920Z,0.98
2022-12-19T19:15:57.364Z,0.98
2022-12-19T19:18:31.712Z,0.98
2022-12-19T19:21:01.507Z,0.99
2022-12-19T19:23:36.209Z,0.95
2022-12-19T19:26:03.203Z,0.96
2022-12-19T19:28:30.457Z,0.89
2022-12-19T19:31:00.008Z,0.93
2022-12-19T19:33:39.884Z,0.96
2022-12-19T19:36:19.603Z,0.90
2022-12-19T19:38:51.834Z,0.88
2022-12-19T19:41:19.241Z,0.90
2022-12-19T19:43:46.281Z,0.90
2022-12-19T19:46:13.124Z,0.94
2022-12-19T19:48:42.640Z,0.94
2022-12-19T19:51:10.014Z,0.95
2022-12-19T19:53:36.859Z,0.98
2022-12-19T19:56:05.000Z,0.92
2022-12-19T19:58:32.251Z,0.95
2022-12-19T20:00:59.275Z,0.89
2022-12-19T20:03:26.967Z,0.91
2022-12-19T20:06:01.823Z,0.95
2022-12-19T20:08:33.677Z,0.95
2022-12-19T20:11:05.798Z,0.95
2022-12-19T20:13:33.000Z,0.97
2022-12-19T20:16:12.216Z,1.01
2022-12-19T20:18:40.995Z,0.97
2022-12-19T20:21:13.753Z,0.99
2022-12-19T20:23:42.844Z,0.91
2022-12-19T20:26:11.808Z,0.89
2022-12-19T20:28:45.953Z,0.88
2022-12-19T20:31:15.235Z,0.93
2022-12-19T20:33:42.692Z,0.98
2022-12-19T20:36:11.970Z,0.96
2022-12-19T20:38:39.503Z,0.97
2022-12-19T20:41:06.636Z,0.95
2022-12-19T20:43:33.865Z,0.92
2022-12-19T20:46:10.600Z,0.93
2022-12-19T20:48:38.305Z,0.95
2022-12-19T20:51:06.544Z,0.92
2022-12-19T20:53:35.620Z,0.92
2022-12-19T20:56:04.814Z,0.88
2022-12-19T20:58:34.094Z,0.87
2022-12-19T21:01:21.943Z,0.86
2022-12-19T21:03:49.258Z,0.86
2022-12-19T21:06:18.729Z,0.86
2022-12-19T21:08:46.262Z,0.79
2022-12-19T21:11:15.511Z,0.74
2022-12-19T21:13:42.781Z,0.73
2022-12-19T21:16:12.856Z,0.75
2022-12-19T21:18:41.816Z,0.74
2022-12-19T21:21:12.325Z,0.76
2022-12-19T21:23:39.116Z,0.79
2022-12-19T21:26:06.217Z,0.72
2022-12-19T21:28:33.616Z,0.67
2022-12-19T21:31:04.847Z,0.78
2022-12-19T21:33:32.030Z,0.81
2022-12-19T21:36:06.466Z,0.84
2022-12-19T21:38:33.345Z,0.85
2022-12-19T21:41:05.995Z,0.83
2022-12-19T21:43:34.132Z,0.84
2022-12-19T21:46:21.489Z,0.85
2022-12-19T21:48:49.890Z,0.82
2022-12-19T21:51:18.986Z,0.84
2022-12-19T21:53:46.658Z,0.84
2022-12-19T21:56:27.224Z,0.87
2022-12-19T21:58:59.500Z,0.83
2022-12-19T22:01:26.960Z,0.73
2022-12-19T22:03:59.229Z,0.72
2022-12-19T22:06:30.162Z,0.72
2022-12-19T22:08:57.127Z,0.73
2022-12-19T22:11:24.286Z,0.78
2022-12-19T22:13:52.001Z,0.76
2022-12-19T22:16:19.122Z,0.74
2022-12-19T22:18:46.410Z,0.72
2022-12-19T22:21:14.774Z,0.71
2022-12-19T22:23:42.287Z,0.72
2022-12-19T22:26:17.853Z,0.77
2022-12-19T22:28:48.542Z,0.74
2022-12-19T22:31:15.260Z,0.77
2022-12-19T22:33:42.095Z,0.84
2022-12-19T22:36:08.975Z,0.86
2022-12-19T22:38:35.703Z,0.85
2022-12-19T22:41:05.979Z,0.84
2022-12-19T22:43:32.736Z,0.76
2022-12-19T22:45:59.634Z,0.77
2022-12-19T22:48:26.394Z,0.84
2022-12-19T22:50:53.131Z,0.74
2022-12-19T22:53:19.885Z,0.76
2022-12-19T22:55:46.624Z,0.72
2022-12-19T22:58:13.380Z,0.62
2022-12-19T23:00:40.136Z,0.67
2022-12-19T23:03:07.810Z,0.67
2022-12-19T23:05:37.815Z,0.72
2022-12-19T23:08:04.924Z,0.75
2022-12-19T23:10:31.720Z,0.79
2022-12-19T23:12:58.441Z,0.80
2022-12-19T23:15:25.371Z,0.80
2022-12-19T23:17:52.137Z,0.70
2022-12-19T23:20:18.933Z,0.79
2022-12-19T23:22:45.658Z,0.72
2022-12-19T23:25:12.592Z,0.71
2022-12-19T23:27:40.483Z,0.77
2022-12-19T23:30:07.890Z,0.80
2022-12-19T23:32:34.660Z,0.81
2022-12-19T23:35:01.380Z,0.84
2022-12-19T23:37:28.128Z,0.85
2022-12-19T23:39:54.887Z,0.82
2022-12-19T23:42:21.595Z,0.84
2022-12-19T23:44:48.446Z,0.83
2022-12-19T23:47:15.179Z,0.86
2022-12-19T23:49:41.925Z,0.87
2022-12-19T23:52:08.794Z,0.87
2022-12-19T23:54:35.685Z,0.87
2022-12-19T23:57:02.439Z,0.88
2022-12-19T23:59:29.174Z,0.81
